createdAt,value
2023-03-11T00:00:25.683Z,83.88
2023-03-11T00:02:59.925Z,83.47
2023-03-11T00:05:33.222Z,80.42
2023-03-11T00:08:01.464Z,81.25
2023-03-11T00:10:35.470Z,83.77
2023-03-11T00:13:04.115Z,82.09
2023-03-11T00:15:31.647Z,83.91
2023-03-11T00:17:59.007Z,82.39
2023-03-11T00:20:35.169Z,82.63
2023-03-11T00:23:02.951Z,81.23
2023-03-11T00:25:31.734Z,84.52
2023-03-11T00:27:59.004Z,83.62
2023-03-11T00:30:28.939Z,84.58
2023-03-11T00:32:58.218Z,85.18
2023-03-11T00:35:28.103Z,85.21
2023-03-11T00:37:58.171Z,85.70
2023-03-11T00:40:27.039Z,86.23
2023-03-11T00:42:54.096Z,86.51
2023-03-11T00:45:21.358Z,86.54
2023-03-11T00:47:48.507Z,86.93
2023-03-11T00:50:23.154Z,87.59
2023-03-11T00:52:51.529Z,88.80
2023-03-11T00:55:22.300Z,87.82
2023-03-11T00:57:53.733Z,85.14
2023-03-11T01:00:23.949Z,86.10
2023-03-11T01:02:56.142Z,86.71
2023-03-11T01:05:27.922Z,88.23
2023-03-11T01:07:55.758Z,84.79
2023-03-11T01:10:22.906Z,85.00
2023-03-11T01:12:50.858Z,84.59
2023-03-11T01:15:29.872Z,86.08
2023-03-11T01:17:59.291Z,84.14
2023-03-11T01:20:26.348Z,83.93
2023-03-11T01:22:53.622Z,84.05
2023-03-11T01:25:24.185Z,85.56
2023-03-11T01:27:51.497Z,89.09
2023-03-11T01:30:21.799Z,86.72
2023-03-11T01:32:49.621Z,85.80
2023-03-11T01:35:18.356Z,86.26
2023-03-11T01:37:47.389Z,85.04
2023-03-11T01:40:19.436Z,85.78
2023-03-11T01:42:46.911Z,85.60
2023-03-11T01:45:29.421Z,86.42
2023-03-11T01:47:56.913Z,86.69
2023-03-11T01:50:27.517Z,86.46
2023-03-11T01:52:54.710Z,86.83
2023-03-11T01:55:21.915Z,86.11
2023-03-11T01:57:50.237Z,85.43
2023-03-11T02:00:17.787Z,85.87
2023-03-11T02:02:53.050Z,86.04
2023-03-11T02:05:22.930Z,85.65
2023-03-11T02:07:52.837Z,85.49
2023-03-11T02:10:21.438Z,85.28
2023-03-11T02:12:50.886Z,86.23
2023-03-11T02:15:26.419Z,85.72
2023-03-11T02:18:02.166Z,85.80
2023-03-11T02:20:54.203Z,86.24
2023-03-11T02:23:29.039Z,86.73
2023-03-11T02:26:08.347Z,87.78
2023-03-11T02:28:37.929Z,86.99
2023-03-11T02:31:05.425Z,83.99
2023-03-11T02:33:35.242Z,85.11
2023-03-11T02:36:02.734Z,85.11
2023-03-11T02:38:29.831Z,85.00
2023-03-11T02:40:59.759Z,85.76
2023-03-11T02:43:41.034Z,84.36
2023-03-11T02:46:11.916Z,85.51
2023-03-11T02:48:39.427Z,84.12
2023-03-11T02:51:07.332Z,85.66
2023-03-11T02:53:45.446Z,86.34
2023-03-11T02:56:13.494Z,84.54
2023-03-11T02:58:40.643Z,85.88
2023-03-11T03:01:10.823Z,82.61
2023-03-11T03:03:39.134Z,82.85
2023-03-11T03:06:07.322Z,82.24
2023-03-11T03:08:34.294Z,83.64
2023-03-11T03:11:01.388Z,80.80
2023-03-11T03:13:28.425Z,79.62
2023-03-11T03:15:57.108Z,81.67
2023-03-11T03:18:24.227Z,83.43
2023-03-11T03:20:52.934Z,83.04
2023-03-11T03:23:20.787Z,85.15
2023-03-11T03:25:48.063Z,83.98
2023-03-11T03:28:15.475Z,84.25
2023-03-11T03:30:45.310Z,86.20
2023-03-11T03:33:16.001Z,86.00
2023-03-11T03:35:45.228Z,86.25
2023-03-11T03:38:20.334Z,87.40
2023-03-11T03:40:49.178Z,87.44
2023-03-11T03:43:19.571Z,88.92
2023-03-11T03:45:59.280Z,88.18
2023-03-11T03:48:30.139Z,89.31
2023-03-11T03:50:57.671Z,90.34
2023-03-11T03:53:24.764Z,90.77
2023-03-11T03:55:54.717Z,91.69
2023-03-11T03:58:22.257Z,92.32
2023-03-11T04:00:49.195Z,92.88
2023-03-11T04:03:16.444Z,93.51
2023-03-11T04:05:50.055Z,93.29
2023-03-11T04:08:17.612Z,90.24
2023-03-11T04:10:44.859Z,89.92
2023-03-11T04:13:11.863Z,89.97
2023-03-11T04:15:47.129Z,91.28
2023-03-11T04:18:14.480Z,87.09
2023-03-11T04:20:41.611Z,88.37
2023-03-11T04:23:08.601Z,86.52
2023-03-11T04:25:35.857Z,86.98
2023-03-11T04:28:03.193Z,86.48
2023-03-11T04:30:31.967Z,87.42
2023-03-11T04:32:59.080Z,88.53
2023-03-11T04:35:26.301Z,88.17
2023-03-11T04:37:53.580Z,87.21
2023-03-11T04:40:21.284Z,89.23
2023-03-11T04:42:48.788Z,89.08
2023-03-11T04:45:18.647Z,87.61
2023-03-11T04:47:51.224Z,87.10
2023-03-11T04:50:19.467Z,87.55
2023-03-11T04:52:47.386Z,87.62
2023-03-11T04:55:16.843Z,86.84
2023-03-11T04:57:44.562Z,87.54
2023-03-11T05:00:15.861Z,86.96
2023-03-11T05:02:47.411Z,85.49
2023-03-11T05:05:14.472Z,84.22
2023-03-11T05:07:42.903Z,85.38
2023-03-11T05:10:12.598Z,84.73
2023-03-11T05:12:39.762Z,85.34
2023-03-11T05:15:08.186Z,87.65
2023-03-11T05:17:35.376Z,87.76
2023-03-11T05:20:02.489Z,88.88
2023-03-11T05:22:32.726Z,88.83
2023-03-11T05:24:59.915Z,89.87
2023-03-11T05:27:27.142Z,89.67
2023-03-11T05:29:56.378Z,91.75
2023-03-11T05:32:25.328Z,91.91
2023-03-11T05:34:53.444Z,90.82
2023-03-11T05:37:21.036Z,90.27
2023-03-11T05:39:49.853Z,91.54
2023-03-11T05:42:16.993Z,91.72
2023-03-11T05:44:46.224Z,92.28
2023-03-11T05:47:13.332Z,92.91
2023-03-11T05:49:40.997Z,92.65
2023-03-11T05:52:08.016Z,92.51
2023-03-11T05:54:35.712Z,92.63
2023-03-11T05:57:02.877Z,91.79
2023-03-11T05:59:32.862Z,91.83
2023-03-11T06:02:02.933Z,91.26
2023-03-11T06:04:30.446Z,87.79
2023-03-11T06:06:59.608Z,89.08
2023-03-11T06:09:29.894Z,89.40
2023-03-11T06:11:57.364Z,89.25
2023-03-11T06:14:32.816Z,90.89
2023-03-11T06:17:01.292Z,84.14
2023-03-11T06:19:28.942Z,85.19
2023-03-11T06:21:56.075Z,85.52
2023-03-11T06:24:23.245Z,86.50
2023-03-11T06:26:53.878Z,85.32
2023-03-11T06:29:24.598Z,85.33
2023-03-11T06:31:52.433Z,89.59
2023-03-11T06:34:20.407Z,93.99
2023-03-11T06:36:47.571Z,94.93
2023-03-11T06:39:15.630Z,95.36
2023-03-11T06:41:45.525Z,95.30
2023-03-11T06:44:13.853Z,95.24
2023-03-11T06:46:42.042Z,96.05
2023-03-11T06:49:09.131Z,97.32
2023-03-11T06:51:37.500Z,98.13
2023-03-11T06:54:05.154Z,97.55
2023-03-11T06:56:32.809Z,95.27
2023-03-11T06:59:04.997Z,95.82
2023-03-11T07:01:34.375Z,94.75
2023-03-11T07:04:04.463Z,95.47
2023-03-11T07:06:32.465Z,95.35
2023-03-11T07:09:07.960Z,95.21
2023-03-11T07:11:38.998Z,96.57
2023-03-11T07:14:13.315Z,95.66
2023-03-11T07:16:48.328Z,95.99
2023-03-11T07:19:44.905Z,94.41
2023-03-11T07:22:12.029Z,93.04
2023-03-11T07:24:39.079Z,92.81
2023-03-11T07:27:06.663Z,91.02
2023-03-11T07:29:33.696Z,92.18
2023-03-11T07:32:08.169Z,91.86
2023-03-11T07:34:35.580Z,90.81
2023-03-11T07:37:02.646Z,91.68
2023-03-11T07:39:29.753Z,91.07
2023-03-11T07:41:56.853Z,91.41
2023-03-11T07:44:30.803Z,90.39
2023-03-11T07:46:58.037Z,90.30
2023-03-11T07:49:25.112Z,89.64
2023-03-11T07:51:52.351Z,90.31
2023-03-11T07:54:19.558Z,87.92
2023-03-11T07:56:46.958Z,88.26
2023-03-11T07:59:14.183Z,89.67
2023-03-11T08:01:41.333Z,90.51
2023-03-11T08:04:13.723Z,90.03
2023-03-11T08:06:43.049Z,90.24
2023-03-11T08:09:10.242Z,89.58
2023-03-11T08:11:37.728Z,88.15
2023-03-11T08:14:05.469Z,86.77
2023-03-11T08:16:33.056Z,82.37
2023-03-11T08:19:00.387Z,80.56
2023-03-11T08:21:30.112Z,79.38
2023-03-11T08:23:59.050Z,80.32
2023-03-11T08:26:26.631Z,81.05
2023-03-11T08:28:55.398Z,81.75
2023-03-11T08:31:25.625Z,85.25
2023-03-11T08:33:57.162Z,87.95
2023-03-11T08:36:24.448Z,80.59
2023-03-11T08:38:51.530Z,80.91
2023-03-11T08:41:19.536Z,83.39
2023-03-11T08:43:47.109Z,86.68
2023-03-11T08:46:36.347Z,80.84
2023-03-11T08:49:05.309Z,87.81
2023-03-11T08:51:38.454Z,88.11
2023-03-11T08:54:05.960Z,88.31
2023-03-11T08:56:33.054Z,89.25
2023-03-11T08:59:00.508Z,84.67
2023-03-11T09:01:29.740Z,85.84
2023-03-11T09:03:56.892Z,85.64
2023-03-11T09:06:24.719Z,87.21
2023-03-11T09:08:52.056Z,86.35
2023-03-11T09:11:19.673Z,89.21
2023-03-11T09:13:46.679Z,89.03
2023-03-11T09:16:22.069Z,87.46
2023-03-11T09:18:49.679Z,86.56
2023-03-11T09:21:17.073Z,76.51
2023-03-11T09:23:44.736Z,82.50
2023-03-11T09:26:12.961Z,85.15
2023-03-11T09:28:41.510Z,85.08
2023-03-11T09:31:08.634Z,81.58
2023-03-11T09:33:41.040Z,84.39
2023-03-11T09:36:12.522Z,80.42
2023-03-11T09:38:39.766Z,82.97
2023-03-11T09:41:19.011Z,84.64
2023-03-11T09:43:46.030Z,79.45
2023-03-11T09:46:34.466Z,76.46
2023-03-11T09:49:32.395Z,76.65
2023-03-11T09:52:16.910Z,74.88
2023-03-11T09:54:53.522Z,77.11
2023-03-11T09:57:25.478Z,76.11
2023-03-11T09:59:52.816Z,72.88
2023-03-11T10:02:23.729Z,82.35
2023-03-11T10:05:06.418Z,86.67
2023-03-11T10:07:47.444Z,83.85
2023-03-11T10:10:15.643Z,88.65
2023-03-11T10:13:03.956Z,87.01
2023-03-11T10:15:49.419Z,75.14
2023-03-11T10:18:41.099Z,79.01
2023-03-11T10:21:25.687Z,82.46
2023-03-11T10:24:17.626Z,75.92
2023-03-11T10:26:51.619Z,77.76
2023-03-11T10:29:31.180Z,63.98
2023-03-11T10:32:02.011Z,69.39
2023-03-11T10:34:38.161Z,67.74
2023-03-11T10:37:11.215Z,71.58
2023-03-11T10:39:39.634Z,73.45
2023-03-11T10:42:14.118Z,76.43
2023-03-11T10:44:42.803Z,75.77
2023-03-11T10:47:24.914Z,74.86
2023-03-11T10:49:53.091Z,77.11
2023-03-11T10:52:20.780Z,71.08
2023-03-11T10:54:59.545Z,77.69
2023-03-11T10:57:33.014Z,77.46
2023-03-11T11:00:04.464Z,76.09
2023-03-11T11:02:38.122Z,69.03
2023-03-11T11:05:23.245Z,69.17
2023-03-11T11:08:02.046Z,67.44
2023-03-11T11:10:29.809Z,70.67
2023-03-11T11:12:56.691Z,68.18
2023-03-11T11:15:34.986Z,71.81
2023-03-11T11:18:16.387Z,69.23
2023-03-11T11:21:04.025Z,68.22
2023-03-11T11:23:44.125Z,64.31
2023-03-11T11:26:26.379Z,69.21
2023-03-11T11:29:12.378Z,75.81
2023-03-11T11:31:45.231Z,71.16
2023-03-11T11:34:32.547Z,74.32
2023-03-11T11:37:05.544Z,79.12
2023-03-11T11:39:51.933Z,76.16
2023-03-11T11:42:20.649Z,77.91
2023-03-11T11:44:52.351Z,70.37
2023-03-11T11:47:28.518Z,70.26
2023-03-11T11:50:00.270Z,65.95
2023-03-11T11:52:40.623Z,62.25
2023-03-11T11:55:20.136Z,62.97
2023-03-11T11:57:47.788Z,70.31
2023-03-11T12:00:20.933Z,73.71
2023-03-11T12:03:06.565Z,76.43
2023-03-11T12:05:46.441Z,74.14
2023-03-11T12:08:43.393Z,74.31
2023-03-11T12:11:39.334Z,73.69
2023-03-11T12:14:36.430Z,66.90
2023-03-11T12:17:05.212Z,69.98
2023-03-11T12:19:47.912Z,71.66
2023-03-11T12:22:26.796Z,66.78
2023-03-11T12:25:12.078Z,69.24
2023-03-11T12:27:54.835Z,70.23
2023-03-11T12:30:33.492Z,70.28
2023-03-11T12:33:17.600Z,72.30
2023-03-11T12:35:56.153Z,78.38
2023-03-11T12:38:38.881Z,78.52
2023-03-11T12:41:06.069Z,70.33
2023-03-11T12:43:35.835Z,68.97
2023-03-11T12:46:10.694Z,63.78
2023-03-11T12:48:50.658Z,65.05
2023-03-11T12:51:26.461Z,60.35
2023-03-11T12:53:55.206Z,63.89
2023-03-11T12:56:31.613Z,59.98
2023-03-11T12:59:24.911Z,61.06
2023-03-11T13:01:54.935Z,61.42
2023-03-11T13:04:36.407Z,62.00
2023-03-11T13:07:40.415Z,60.53
2023-03-11T13:10:07.386Z,59.19
2023-03-11T13:12:42.065Z,55.61
2023-03-11T13:15:18.433Z,58.96
2023-03-11T13:18:11.281Z,57.80
2023-03-11T13:20:44.553Z,58.51
2023-03-11T13:23:14.546Z,57.07
2023-03-11T13:25:50.378Z,63.55
2023-03-11T13:28:23.131Z,60.24
2023-03-11T13:31:04.433Z,60.63
2023-03-11T13:33:54.672Z,55.36
2023-03-11T13:36:30.685Z,60.14
2023-03-11T13:39:00.631Z,56.33
2023-03-11T13:41:35.022Z,55.05
2023-03-11T13:44:27.933Z,55.65
2023-03-11T13:47:04.501Z,57.70
2023-03-11T13:49:35.834Z,61.86
2023-03-11T13:52:07.368Z,63.03
2023-03-11T13:54:40.556Z,63.33
2023-03-11T13:57:27.506Z,64.96
2023-03-11T13:59:56.536Z,64.41
2023-03-11T14:02:28.028Z,64.40
2023-03-11T14:04:59.182Z,65.31
2023-03-11T14:07:34.481Z,66.58
2023-03-11T14:10:26.236Z,66.26
2023-03-11T14:13:25.468Z,65.72
2023-03-11T14:15:58.437Z,66.89
2023-03-11T14:18:27.397Z,66.26
2023-03-11T14:21:05.432Z,65.02
2023-03-11T14:23:41.477Z,64.61
2023-03-11T14:26:34.234Z,62.15
2023-03-11T14:29:16.613Z,60.83
2023-03-11T14:31:52.202Z,59.95
2023-03-11T14:34:19.132Z,61.43
2023-03-11T14:36:52.537Z,62.54
2023-03-11T14:39:28.704Z,63.48
2023-03-11T14:42:06.817Z,62.91
2023-03-11T14:44:42.560Z,63.13
2023-03-11T14:47:23.106Z,64.36
2023-03-11T14:49:51.402Z,63.35
2023-03-11T14:52:32.775Z,65.91
2023-03-11T14:55:00.935Z,66.35
2023-03-11T14:57:36.910Z,63.47
2023-03-11T15:00:08.501Z,62.98
2023-03-11T15:03:12.817Z,64.67
2023-03-11T15:05:45.789Z,65.64
2023-03-11T15:08:13.177Z,64.71
2023-03-11T15:10:40.176Z,64.37
2023-03-11T15:13:13.943Z,64.23
2023-03-11T15:15:41.469Z,63.16
2023-03-11T15:18:28.979Z,63.80
2023-03-11T15:21:18.083Z,63.99
2023-03-11T15:23:48.145Z,62.47
2023-03-11T15:26:30.178Z,64.84
2023-03-11T15:29:00.335Z,65.68
2023-03-11T15:31:38.109Z,65.61
2023-03-11T15:34:32.381Z,66.87
2023-03-11T15:37:03.751Z,65.90
2023-03-11T15:39:30.708Z,67.94
2023-03-11T15:42:06.619Z,67.09
2023-03-11T15:44:41.189Z,68.11
2023-03-11T15:47:28.594Z,67.19
2023-03-11T15:49:55.629Z,67.88
2023-03-11T15:52:22.608Z,66.54
2023-03-11T15:54:55.740Z,67.15
2023-03-11T15:57:27.507Z,67.75
2023-03-11T15:59:56.874Z,66.74
2023-03-11T16:02:26.464Z,66.52
2023-03-11T16:04:55.087Z,66.59
2023-03-11T16:07:38.096Z,66.52
2023-03-11T16:10:08.050Z,65.75
2023-03-11T16:12:35.198Z,66.77
2023-03-11T16:15:02.619Z,66.19
2023-03-11T16:17:42.950Z,66.71
2023-03-11T16:20:14.252Z,67.54
2023-03-11T16:22:41.366Z,65.91
2023-03-11T16:25:18.244Z,66.17
2023-03-11T16:27:45.248Z,67.48
2023-03-11T16:30:16.137Z,67.52
2023-03-11T16:32:43.738Z,67.31
2023-03-11T16:35:11.964Z,68.74
2023-03-11T16:37:49.322Z,67.50
2023-03-11T16:40:19.801Z,67.68
2023-03-11T16:42:47.536Z,67.84
2023-03-11T16:45:16.755Z,68.32
2023-03-11T16:47:44.065Z,68.04
2023-03-11T16:50:12.437Z,67.63
2023-03-11T16:52:39.630Z,68.40
2023-03-11T16:55:07.275Z,67.00
2023-03-11T16:57:34.415Z,67.73
2023-03-11T17:00:07.042Z,68.08
2023-03-11T17:02:34.189Z,69.37
2023-03-11T17:05:01.438Z,69.16
2023-03-11T17:07:28.715Z,69.93
2023-03-11T17:09:55.932Z,70.34
2023-03-11T17:12:23.269Z,69.86
2023-03-11T17:14:50.339Z,68.17
2023-03-11T17:17:17.412Z,67.15
2023-03-11T17:19:44.806Z,68.32
2023-03-11T17:22:12.782Z,68.74
2023-03-11T17:24:40.094Z,69.04
2023-03-11T17:27:07.135Z,68.51
2023-03-11T17:29:34.392Z,68.11
2023-03-11T17:32:06.193Z,67.57
2023-03-11T17:34:33.289Z,67.36
2023-03-11T17:37:00.357Z,67.12
2023-03-11T17:39:27.482Z,67.33
2023-03-11T17:41:54.308Z,67.14
2023-03-11T17:44:21.429Z,67.00
2023-03-11T17:46:48.458Z,67.18
2023-03-11T17:49:15.557Z,67.57
2023-03-11T17:51:42.830Z,68.19
2023-03-11T17:54:10.158Z,67.53
2023-03-11T17:56:37.163Z,67.46
2023-03-11T17:59:04.292Z,67.11
2023-03-11T18:01:34.813Z,67.47
2023-03-11T18:04:03.036Z,68.27
2023-03-11T18:06:30.681Z,67.39
2023-03-11T18:08:57.804Z,67.96
2023-03-11T18:11:28.094Z,66.76
2023-03-11T18:13:55.544Z,68.16
2023-03-11T18:16:25.942Z,69.16
2023-03-11T18:18:53.011Z,69.53
2023-03-11T18:21:22.717Z,70.17
2023-03-11T18:23:49.801Z,70.20
2023-03-11T18:26:18.612Z,71.61
2023-03-11T18:28:46.016Z,72.12
2023-03-11T18:31:23.065Z,71.80
2023-03-11T18:34:02.671Z,71.59
2023-03-11T18:36:32.835Z,71.40
2023-03-11T18:39:01.193Z,71.08
2023-03-11T18:41:32.458Z,69.63
2023-03-11T18:44:00.128Z,69.43
2023-03-11T18:46:31.684Z,68.13
2023-03-11T18:49:00.146Z,67.59
2023-03-11T18:51:28.977Z,68.10
2023-03-11T18:53:56.096Z,68.37
2023-03-11T18:56:23.254Z,68.06
2023-03-11T18:58:50.360Z,70.26
2023-03-11T19:01:21.664Z,69.21
2023-03-11T19:03:53.998Z,72.42
2023-03-11T19:06:22.531Z,71.13
2023-03-11T19:08:50.012Z,71.48
2023-03-11T19:11:20.208Z,71.64
2023-03-11T19:13:48.124Z,71.72
2023-03-11T19:16:18.349Z,70.56
2023-03-11T19:18:46.162Z,71.60
2023-03-11T19:21:15.283Z,71.53
2023-03-11T19:23:42.947Z,71.79
2023-03-11T19:26:10.272Z,72.48
2023-03-11T19:28:37.274Z,73.37
2023-03-11T19:31:05.433Z,73.30
2023-03-11T19:33:32.725Z,73.39
2023-03-11T19:36:02.405Z,72.51
2023-03-11T19:38:30.181Z,72.42
2023-03-11T19:41:06.851Z,72.86
2023-03-11T19:43:38.376Z,72.44
2023-03-11T19:46:06.498Z,73.21
2023-03-11T19:48:34.000Z,73.45
2023-03-11T19:51:02.670Z,74.03
2023-03-11T19:53:29.713Z,74.17
2023-03-11T19:55:58.014Z,74.52
2023-03-11T19:58:30.104Z,74.27
2023-03-11T20:00:58.885Z,73.83
2023-03-11T20:03:26.842Z,73.82
2023-03-11T20:05:56.868Z,73.63
2023-03-11T20:08:25.515Z,75.09
2023-03-11T20:10:53.767Z,74.89
2023-03-11T20:13:22.115Z,75.30
2023-03-11T20:15:49.906Z,74.93
2023-03-11T20:18:18.246Z,75.96
2023-03-11T20:20:45.687Z,77.32
2023-03-11T20:23:13.284Z,75.44
2023-03-11T20:25:41.483Z,75.07
2023-03-11T20:28:09.449Z,75.89
2023-03-11T20:30:37.739Z,75.87
2023-03-11T20:33:05.153Z,74.26
2023-03-11T20:35:32.307Z,76.48
2023-03-11T20:38:00.244Z,76.58
2023-03-11T20:40:27.448Z,75.13
2023-03-11T20:42:54.469Z,75.24
2023-03-11T20:45:22.295Z,74.93
2023-03-11T20:47:50.750Z,73.13
2023-03-11T20:50:18.425Z,72.64
2023-03-11T20:52:45.551Z,72.65
2023-03-11T20:55:12.998Z,72.42
2023-03-11T20:57:40.424Z,73.35
2023-03-11T21:00:11.793Z,72.67
2023-03-11T21:02:41.200Z,73.16
2023-03-11T21:05:09.945Z,73.04
2023-03-11T21:07:37.888Z,72.90
2023-03-11T21:10:07.066Z,72.65
2023-03-11T21:12:34.153Z,72.20
2023-03-11T21:15:01.492Z,72.15
2023-03-11T21:17:28.470Z,72.30
2023-03-11T21:19:55.913Z,73.02
2023-03-11T21:22:23.030Z,72.66
2023-03-11T21:24:54.181Z,72.50
2023-03-11T21:27:26.764Z,72.14
2023-03-11T21:29:58.093Z,73.20
2023-03-11T21:32:28.083Z,73.39
2023-03-11T21:34:57.547Z,74.35
2023-03-11T21:37:26.061Z,74.14
2023-03-11T21:39:53.298Z,75.09
2023-03-11T21:42:21.125Z,74.97
2023-03-11T21:44:48.548Z,74.84
2023-03-11T21:47:15.803Z,74.69
2023-03-11T21:49:43.026Z,74.70
2023-03-11T21:52:10.083Z,75.23
2023-03-11T21:54:37.226Z,76.86
2023-03-11T21:57:04.476Z,76.57
2023-03-11T21:59:31.695Z,76.95
2023-03-11T22:02:03.307Z,75.34
2023-03-11T22:04:32.025Z,74.28
2023-03-11T22:06:59.400Z,74.50
2023-03-11T22:09:26.716Z,74.31
2023-03-11T22:11:56.392Z,75.03
2023-03-11T22:14:24.305Z,75.60
2023-03-11T22:16:52.150Z,75.33
2023-03-11T22:19:19.799Z,76.01
2023-03-11T22:21:48.634Z,75.54
2023-03-11T22:24:16.030Z,75.46
2023-03-11T22:26:45.252Z,75.10
2023-03-11T22:29:13.622Z,75.15
2023-03-11T22:31:41.747Z,74.90
2023-03-11T22:34:08.672Z,74.16
2023-03-11T22:36:35.793Z,74.10
2023-03-11T22:39:04.525Z,74.19
2023-03-11T22:41:32.362Z,74.06
2023-03-11T22:43:59.465Z,74.85
2023-03-11T22:46:26.960Z,75.18
2023-03-11T22:48:53.984Z,75.39
2023-03-11T22:51:21.381Z,75.25
2023-03-11T22:53:48.763Z,75.97
2023-03-11T22:56:17.951Z,76.93
2023-03-11T22:58:45.529Z,77.49
2023-03-11T23:01:13.174Z,76.72
2023-03-11T23:03:46.616Z,76.72
2023-03-11T23:06:16.432Z,76.21
2023-03-11T23:08:43.872Z,76.07
2023-03-11T23:11:13.370Z,77.02
2023-03-11T23:13:41.679Z,76.70
2023-03-11T23:16:15.656Z,76.97
2023-03-11T23:18:44.752Z,77.08
2023-03-11T23:21:15.935Z,77.41
2023-03-11T23:23:42.938Z,78.36
2023-03-11T23:26:11.849Z,77.17
2023-03-11T23:28:41.343Z,74.94
2023-03-11T23:31:10.052Z,74.29
2023-03-11T23:33:37.711Z,75.05
2023-03-11T23:36:08.092Z,74.17
2023-03-11T23:38:35.850Z,73.87
2023-03-11T23:41:10.005Z,74.14
2023-03-11T23:43:39.334Z,74.47
2023-03-11T23:46:07.053Z,74.47
2023-03-11T23:48:34.853Z,73.08
2023-03-11T23:51:01.956Z,73.80
2023-03-11T23:53:29.102Z,72.86
2023-03-11T23:55:56.101Z,72.30
2023-03-11T23:58:23.368Z,71.79
